sensor_id;sensor_type;location;lat;lon;timestamp;temperature;humidity
15535;DHT22;7869;49.264;8.596;2022-08-19T00:00:05;21.10;99.90
15535;DHT22;7869;49.264;8.596;2022-08-19T00:02:32;21.10;99.90
15535;DHT22;7869;49.264;8.596;2022-08-19T00:04:57;21.10;99.90
15535;DHT22;7869;49.264;8.596;2022-08-19T00:07:23;21.10;99.90
15535;DHT22;7869;49.264;8.596;2022-08-19T00:09:49;21.10;99.90
15535;DHT22;7869;49.264;8.596;2022-08-19T00:12:14;21.00;99.90
15535;DHT22;7869;49.264;8.596;2022-08-19T00:14:40;21.00;99.90
15535;DHT22;7869;49.264;8.596;2022-08-19T00:17:07;21.00;99.90
15535;DHT22;7869;49.264;8.596;2022-08-19T00:19:33;21.00;99.90
15535;DHT22;7869;49.264;8.596;2022-08-19T00:21:59;21.00;99.90
15535;DHT22;7869;49.264;8.596;2022-08-19T00:24:25;21.00;99.90
15535;DHT22;7869;49.264;8.596;2022-08-19T00:26:51;21.00;99.90
15535;DHT22;7869;49.264;8.596;2022-08-19T00:29:20;21.00;99.90
15535;DHT22;7869;49.264;8.596;2022-08-19T00:31:46;21.00;99.90
15535;DHT22;7869;49.264;8.596;2022-08-19T00:34:13;21.00;99.90
15535;DHT22;7869;49.264;8.596;2022-08-19T00:36:39;21.00;99.90
15535;DHT22;7869;49.264;8.596;2022-08-19T00:39:05;21.00;99.90
15535;DHT22;7869;49.264;8.596;2022-08-19T00:41:31;21.00;99.90
15535;DHT22;7869;49.264;8.596;2022-08-19T00:44:13;21.00;99.90
15535;DHT22;7869;49.264;8.596;2022-08-19T00:46:41;21.00;99.90
15535;DHT22;7869;49.264;8.596;2022-08-19T00:51:41;21.00;99.90
15535;DHT22;7869;49.264;8.596;2022-08-19T00:54:08;21.00;99.90
15535;DHT22;7869;49.264;8.596;2022-08-19T00:56:34;21.00;99.90
15535;DHT22;7869;49.264;8.596;2022-08-19T00:59:02;21.10;99.90
15535;DHT22;7869;49.264;8.596;2022-08-19T01:01:28;21.00;99.90
15535;DHT22;7869;49.264;8.596;2022-08-19T01:03:54;21.00;99.90
15535;DHT22;7869;49.264;8.596;2022-08-19T01:06:20;20.90;99.90
15535;DHT22;7869;49.264;8.596;2022-08-19T01:08:46;20.90;99.90
15535;DHT22;7869;49.264;8.596;2022-08-19T01:11:12;20.90;99.90
15535;DHT22;7869;49.264;8.596;2022-08-19T01:13:37;20.90;99.90
15535;DHT22;7869;49.264;8.596;2022-08-19T01:16:06;20.90;99.90
15535;DHT22;7869;49.264;8.596;2022-08-19T01:18:36;20.80;99.90
15535;DHT22;7869;49.264;8.596;2022-08-19T01:21:10;20.80;99.90
15535;DHT22;7869;49.264;8.596;2022-08-19T01:23:37;20.80;99.90
15535;DHT22;7869;49.264;8.596;2022-08-19T01:26:12;20.80;99.90
15535;DHT22;7869;49.264;8.596;2022-08-19T01:28:40;20.90;99.90
15535;DHT22;7869;49.264;8.596;2022-08-19T01:31:08;20.80;99.90
15535;DHT22;7869;49.264;8.596;2022-08-19T01:33:37;20.80;99.90
15535;DHT22;7869;49.264;8.596;2022-08-19T01:36:08;20.90;99.90
15535;DHT22;7869;49.264;8.596;2022-08-19T01:38:37;20.80;99.90
15535;DHT22;7869;49.264;8.596;2022-08-19T01:41:03;20.80;99.90
15535;DHT22;7869;49.264;8.596;2022-08-19T01:43:28;20.80;99.90
15535;DHT22;7869;49.264;8.596;2022-08-19T01:45:54;20.80;99.90
15535;DHT22;7869;49.264;8.596;2022-08-19T01:48:20;20.80;99.90
15535;DHT22;7869;49.264;8.596;2022-08-19T01:50:45;20.80;1.00
15535;DHT22;7869;49.264;8.596;2022-08-19T01:53:13;20.70;1.00
15535;DHT22;7869;49.264;8.596;2022-08-19T01:55:41;20.70;1.00
15535;DHT22;7869;49.264;8.596;2022-08-19T01:58:19;20.70;1.00
15535;DHT22;7869;49.264;8.596;2022-08-19T02:00:46;20.70;1.00
15535;DHT22;7869;49.264;8.596;2022-08-19T02:03:12;20.80;1.00
15535;DHT22;7869;49.264;8.596;2022-08-19T02:05:39;20.80;1.00
15535;DHT22;7869;49.264;8.596;2022-08-19T02:08:05;20.80;1.00
15535;DHT22;7869;49.264;8.596;2022-08-19T02:10:31;20.80;99.90
15535;DHT22;7869;49.264;8.596;2022-08-19T02:12:57;20.80;99.90
15535;DHT22;7869;49.264;8.596;2022-08-19T02:15:23;20.80;99.90
15535;DHT22;7869;49.264;8.596;2022-08-19T02:17:48;20.90;99.90
15535;DHT22;7869;49.264;8.596;2022-08-19T02:20:15;20.90;99.90
15535;DHT22;7869;49.264;8.596;2022-08-19T02:22:41;20.80;99.90
15535;DHT22;7869;49.264;8.596;2022-08-19T02:25:11;20.80;99.90
15535;DHT22;7869;49.264;8.596;2022-08-19T02:27:38;20.80;99.90
15535;DHT22;7869;49.264;8.596;2022-08-19T02:30:06;20.80;1.00
15535;DHT22;7869;49.264;8.596;2022-08-19T02:32:32;20.70;1.00
15535;DHT22;7869;49.264;8.596;2022-08-19T02:34:58;20.80;1.00
15535;DHT22;7869;49.264;8.596;2022-08-19T02:37:24;20.70;1.00
15535;DHT22;7869;49.264;8.596;2022-08-19T02:40:08;20.70;1.00
15535;DHT22;7869;49.264;8.596;2022-08-19T02:42:34;20.60;1.00
15535;DHT22;7869;49.264;8.596;2022-08-19T02:45:00;20.60;1.00
15535;DHT22;7869;49.264;8.596;2022-08-19T02:47:25;20.60;1.00
15535;DHT22;7869;49.264;8.596;2022-08-19T02:49:51;20.60;1.00
15535;DHT22;7869;49.264;8.596;2022-08-19T02:52:16;20.60;1.00
15535;DHT22;7869;49.264;8.596;2022-08-19T02:54:43;20.60;1.00
15535;DHT22;7869;49.264;8.596;2022-08-19T02:57:09;20.60;1.00
15535;DHT22;7869;49.264;8.596;2022-08-19T02:59:35;20.60;1.00
15535;DHT22;7869;49.264;8.596;2022-08-19T03:02:00;20.50;1.00
15535;DHT22;7869;49.264;8.596;2022-08-19T03:04:26;20.50;1.00
15535;DHT22;7869;49.264;8.596;2022-08-19T03:06:52;20.50;1.00
15535;DHT22;7869;49.264;8.596;2022-08-19T03:09:19;20.60;1.00
15535;DHT22;7869;49.264;8.596;2022-08-19T03:11:45;20.50;1.00
15535;DHT22;7869;49.264;8.596;2022-08-19T03:14:11;20.50;1.00
15535;DHT22;7869;49.264;8.596;2022-08-19T03:16:46;20.50;1.00
15535;DHT22;7869;49.264;8.596;2022-08-19T03:19:12;20.50;1.00
15535;DHT22;7869;49.264;8.596;2022-08-19T03:21:37;20.60;1.00
15535;DHT22;7869;49.264;8.596;2022-08-19T03:24:08;20.60;1.00
15535;DHT22;7869;49.264;8.596;2022-08-19T03:26:37;20.50;1.00
15535;DHT22;7869;49.264;8.596;2022-08-19T03:29:04;20.50;1.00
15535;DHT22;7869;49.264;8.596;2022-08-19T03:31:30;20.50;1.00
15535;DHT22;7869;49.264;8.596;2022-08-19T03:33:56;20.40;1.00
15535;DHT22;7869;49.264;8.596;2022-08-19T03:36:24;20.50;1.00
15535;DHT22;7869;49.264;8.596;2022-08-19T03:38:53;20.40;1.00
15535;DHT22;7869;49.264;8.596;2022-08-19T03:41:46;20.40;70.00
15535;DHT22;7869;49.264;8.596;2022-08-19T03:44:13;20.30;99.90
15535;DHT22;7869;49.264;8.596;2022-08-19T03:46:39;20.30;99.90
15535;DHT22;7869;49.264;8.596;2022-08-19T03:49:05;20.30;1.00
15535;DHT22;7869;49.264;8.596;2022-08-19T03:51:37;20.30;1.00
15535;DHT22;7869;49.264;8.596;2022-08-19T03:54:06;20.20;1.00
15535;DHT22;7869;49.264;8.596;2022-08-19T03:56:34;20.20;1.00
15535;DHT22;7869;49.264;8.596;2022-08-19T03:59:00;20.10;1.00
15535;DHT22;7869;49.264;8.596;2022-08-19T04:01:28;20.00;99.90
15535;DHT22;7869;49.264;8.596;2022-08-19T04:03:55;20.00;1.00
15535;DHT22;7869;49.264;8.596;2022-08-19T04:06:28;20.00;1.00
15535;DHT22;7869;49.264;8.596;2022-08-19T04:08:56;20.00;1.00
15535;DHT22;7869;49.264;8.596;2022-08-19T04:11:26;20.00;1.00
15535;DHT22;7869;49.264;8.596;2022-08-19T04:13:53;20.00;1.00
15535;DHT22;7869;49.264;8.596;2022-08-19T04:16:21;20.00;99.90
15535;DHT22;7869;49.264;8.596;2022-08-19T04:18:48;20.00;1.00
15535;DHT22;7869;49.264;8.596;2022-08-19T04:21:19;20.00;1.00
15535;DHT22;7869;49.264;8.596;2022-08-19T04:23:45;20.00;99.90
15535;DHT22;7869;49.264;8.596;2022-08-19T04:26:15;20.10;99.90
15535;DHT22;7869;49.264;8.596;2022-08-19T04:28:42;20.00;99.90
15535;DHT22;7869;49.264;8.596;2022-08-19T04:31:30;20.00;99.90
15535;DHT22;7869;49.264;8.596;2022-08-19T04:33:57;20.00;99.90
15535;DHT22;7869;49.264;8.596;2022-08-19T04:36:29;20.10;99.90
15535;DHT22;7869;49.264;8.596;2022-08-19T04:39:01;20.00;99.90
15535;DHT22;7869;49.264;8.596;2022-08-19T04:41:27;20.10;99.90
15535;DHT22;7869;49.264;8.596;2022-08-19T04:44:12;20.10;99.90
15535;DHT22;7869;49.264;8.596;2022-08-19T04:46:38;20.10;99.90
15535;DHT22;7869;49.264;8.596;2022-08-19T04:49:05;20.10;99.90
15535;DHT22;7869;49.264;8.596;2022-08-19T04:51:32;20.10;99.90
15535;DHT22;7869;49.264;8.596;2022-08-19T04:53:59;20.10;99.90
15535;DHT22;7869;49.264;8.596;2022-08-19T04:56:26;20.20;38.20
15535;DHT22;7869;49.264;8.596;2022-08-19T04:58:53;20.20;1.00
15535;DHT22;7869;49.264;8.596;2022-08-19T05:01:25;20.20;1.00
15535;DHT22;7869;49.264;8.596;2022-08-19T05:03:51;20.20;1.00
15535;DHT22;7869;49.264;8.596;2022-08-19T05:06:19;20.30;1.00
15535;DHT22;7869;49.264;8.596;2022-08-19T05:08:46;20.30;1.00
15535;DHT22;7869;49.264;8.596;2022-08-19T05:11:27;20.30;1.00
15535;DHT22;7869;49.264;8.596;2022-08-19T05:13:53;20.40;1.00
15535;DHT22;7869;49.264;8.596;2022-08-19T05:16:21;20.40;99.90
15535;DHT22;7869;49.264;8.596;2022-08-19T05:18:47;20.50;99.90
15535;DHT22;7869;49.264;8.596;2022-08-19T05:21:32;20.50;99.90
15535;DHT22;7869;49.264;8.596;2022-08-19T05:24:17;20.50;99.90
15535;DHT22;7869;49.264;8.596;2022-08-19T05:26:45;20.60;99.90
15535;DHT22;7869;49.264;8.596;2022-08-19T05:29:12;20.60;99.90
15535;DHT22;7869;49.264;8.596;2022-08-19T05:31:39;20.50;99.90
15535;DHT22;7869;49.264;8.596;2022-08-19T05:34:05;20.60;99.90
15535;DHT22;7869;49.264;8.596;2022-08-19T05:36:36;20.70;60.60
15535;DHT22;7869;49.264;8.596;2022-08-19T05:39:05;20.80;1.00
15535;DHT22;7869;49.264;8.596;2022-08-19T05:41:31;20.80;1.00
15535;DHT22;7869;49.264;8.596;2022-08-19T05:43:57;20.80;1.00
15535;DHT22;7869;49.264;8.596;2022-08-19T05:46:23;20.90;1.00
15535;DHT22;7869;49.264;8.596;2022-08-19T05:48:49;20.90;1.00
15535;DHT22;7869;49.264;8.596;2022-08-19T05:51:16;21.00;1.00
15535;DHT22;7869;49.264;8.596;2022-08-19T05:53:42;21.00;1.00
15535;DHT22;7869;49.264;8.596;2022-08-19T05:56:12;21.00;1.00
15535;DHT22;7869;49.264;8.596;2022-08-19T05:58:38;21.00;1.00
15535;DHT22;7869;49.264;8.596;2022-08-19T06:01:10;21.10;1.00
15535;DHT22;7869;49.264;8.596;2022-08-19T06:03:36;21.10;1.00
15535;DHT22;7869;49.264;8.596;2022-08-19T06:06:03;21.10;1.00
15535;DHT22;7869;49.264;8.596;2022-08-19T06:08:29;21.10;1.00
15535;DHT22;7869;49.264;8.596;2022-08-19T06:10:55;21.20;1.00
15535;DHT22;7869;49.264;8.596;2022-08-19T06:13:21;21.20;1.00
15535;DHT22;7869;49.264;8.596;2022-08-19T06:15:48;21.20;99.90
15535;DHT22;7869;49.264;8.596;2022-08-19T06:18:14;21.30;99.90
15535;DHT22;7869;49.264;8.596;2022-08-19T06:20:40;21.30;99.90
15535;DHT22;7869;49.264;8.596;2022-08-19T06:23:06;21.30;99.90
15535;DHT22;7869;49.264;8.596;2022-08-19T06:25:32;21.30;99.90
15535;DHT22;7869;49.264;8.596;2022-08-19T06:27:57;21.30;99.90
15535;DHT22;7869;49.264;8.596;2022-08-19T06:30:23;21.40;99.90
15535;DHT22;7869;49.264;8.596;2022-08-19T06:32:48;21.30;99.90
15535;DHT22;7869;49.264;8.596;2022-08-19T06:35:14;21.40;99.90
15535;DHT22;7869;49.264;8.596;2022-08-19T06:37:40;21.40;99.90
15535;DHT22;7869;49.264;8.596;2022-08-19T06:40:06;21.40;99.90
15535;DHT22;7869;49.264;8.596;2022-08-19T06:42:34;21.50;99.90
15535;DHT22;7869;49.264;8.596;2022-08-19T06:45:00;21.50;99.90
15535;DHT22;7869;49.264;8.596;2022-08-19T06:47:29;21.60;99.90
15535;DHT22;7869;49.264;8.596;2022-08-19T06:49:58;21.70;99.90
15535;DHT22;7869;49.264;8.596;2022-08-19T06:52:29;21.80;99.90
15535;DHT22;7869;49.264;8.596;2022-08-19T06:54:54;21.80;99.90
15535;DHT22;7869;49.264;8.596;2022-08-19T06:57:21;21.90;99.90
15535;DHT22;7869;49.264;8.596;2022-08-19T06:59:46;22.00;99.90
15535;DHT22;7869;49.264;8.596;2022-08-19T07:02:12;22.00;99.90
15535;DHT22;7869;49.264;8.596;2022-08-19T07:04:38;22.10;99.90
15535;DHT22;7869;49.264;8.596;2022-08-19T07:07:09;22.10;99.90
15535;DHT22;7869;49.264;8.596;2022-08-19T07:09:39;22.20;99.90
15535;DHT22;7869;49.264;8.596;2022-08-19T07:12:06;22.30;80.50
15535;DHT22;7869;49.264;8.596;2022-08-19T07:14:34;22.20;50.80
15535;DHT22;7869;49.264;8.596;2022-08-19T07:17:04;22.30;25.50
15535;DHT22;7869;49.264;8.596;2022-08-19T07:19:30;22.40;1.00
15535;DHT22;7869;49.264;8.596;2022-08-19T07:21:57;22.40;2.10
15535;DHT22;7869;49.264;8.596;2022-08-19T07:24:25;22.60;1.00
15535;DHT22;7869;49.264;8.596;2022-08-19T07:26:53;22.70;1.00
15535;DHT22;7869;49.264;8.596;2022-08-19T07:29:20;22.70;1.00
15535;DHT22;7869;49.264;8.596;2022-08-19T07:31:49;22.60;1.00
15535;DHT22;7869;49.264;8.596;2022-08-19T07:34:15;22.70;1.00
15535;DHT22;7869;49.264;8.596;2022-08-19T07:36:41;22.80;1.00
15535;DHT22;7869;49.264;8.596;2022-08-19T07:39:14;22.80;1.00
15535;DHT22;7869;49.264;8.596;2022-08-19T07:41:40;22.80;1.00
15535;DHT22;7869;49.264;8.596;2022-08-19T07:44:07;22.90;1.00
15535;DHT22;7869;49.264;8.596;2022-08-19T07:46:35;22.80;1.00
15535;DHT22;7869;49.264;8.596;2022-08-19T07:49:02;22.70;1.00
15535;DHT22;7869;49.264;8.596;2022-08-19T07:51:28;22.80;1.00
15535;DHT22;7869;49.264;8.596;2022-08-19T07:53:54;22.80;1.00
15535;DHT22;7869;49.264;8.596;2022-08-19T07:56:21;22.90;1.00
15535;DHT22;7869;49.264;8.596;2022-08-19T07:58:49;23.00;1.00
15535;DHT22;7869;49.264;8.596;2022-08-19T08:01:24;23.00;1.00
15535;DHT22;7869;49.264;8.596;2022-08-19T08:03:52;23.10;1.00
15535;DHT22;7869;49.264;8.596;2022-08-19T08:06:37;23.00;1.00
15535;DHT22;7869;49.264;8.596;2022-08-19T08:09:32;23.00;1.00
15535;DHT22;7869;49.264;8.596;2022-08-19T08:12:01;23.00;1.00
15535;DHT22;7869;49.264;8.596;2022-08-19T08:14:35;23.00;1.00
15535;DHT22;7869;49.264;8.596;2022-08-19T08:17:03;23.20;1.00
15535;DHT22;7869;49.264;8.596;2022-08-19T08:19:29;23.10;1.00
15535;DHT22;7869;49.264;8.596;2022-08-19T08:21:57;23.20;1.00
15535;DHT22;7869;49.264;8.596;2022-08-19T08:24:24;23.40;1.00
15535;DHT22;7869;49.264;8.596;2022-08-19T08:26:50;23.60;1.00
15535;DHT22;7869;49.264;8.596;2022-08-19T08:29:16;23.80;1.00
15535;DHT22;7869;49.264;8.596;2022-08-19T08:31:43;23.70;1.00
15535;DHT22;7869;49.264;8.596;2022-08-19T08:34:10;23.90;1.00
15535;DHT22;7869;49.264;8.596;2022-08-19T08:36:37;24.10;1.00
15535;DHT22;7869;49.264;8.596;2022-08-19T08:39:10;24.30;1.00
15535;DHT22;7869;49.264;8.596;2022-08-19T08:42:05;24.40;1.00
15535;DHT22;7869;49.264;8.596;2022-08-19T08:44:43;24.50;1.00
15535;DHT22;7869;49.264;8.596;2022-08-19T08:47:17;24.60;1.00
15535;DHT22;7869;49.264;8.596;2022-08-19T08:49:52;24.80;1.00
15535;DHT22;7869;49.264;8.596;2022-08-19T08:52:36;25.10;1.00
15535;DHT22;7869;49.264;8.596;2022-08-19T08:55:15;25.40;1.00
15535;DHT22;7869;49.264;8.596;2022-08-19T09:00:34;25.50;99.90
15535;DHT22;7869;49.264;8.596;2022-08-19T09:03:01;25.60;99.90
15535;DHT22;7869;49.264;8.596;2022-08-19T09:11:03;25.50;99.90
15535;DHT22;7869;49.264;8.596;2022-08-19T09:16:20;25.60;99.90
15535;DHT22;7869;49.264;8.596;2022-08-19T09:18:52;25.80;99.90
15535;DHT22;7869;49.264;8.596;2022-08-19T09:21:19;25.70;99.90
15535;DHT22;7869;49.264;8.596;2022-08-19T09:23:46;25.60;99.90
15535;DHT22;7869;49.264;8.596;2022-08-19T09:26:14;25.90;99.90
15535;DHT22;7869;49.264;8.596;2022-08-19T09:28:41;25.80;99.90
15535;DHT22;7869;49.264;8.596;2022-08-19T09:31:10;25.40;99.90
15535;DHT22;7869;49.264;8.596;2022-08-19T09:33:36;25.50;99.90
15535;DHT22;7869;49.264;8.596;2022-08-19T09:36:11;25.40;99.90
15535;DHT22;7869;49.264;8.596;2022-08-19T09:38:38;25.50;99.90
15535;DHT22;7869;49.264;8.596;2022-08-19T09:41:08;25.50;99.90
15535;DHT22;7869;49.264;8.596;2022-08-19T09:43:34;25.50;99.90
15535;DHT22;7869;49.264;8.596;2022-08-19T09:46:03;25.60;99.90
15535;DHT22;7869;49.264;8.596;2022-08-19T09:48:31;25.90;99.90
15535;DHT22;7869;49.264;8.596;2022-08-19T09:51:03;25.90;99.90
15535;DHT22;7869;49.264;8.596;2022-08-19T09:53:29;26.00;99.90
15535;DHT22;7869;49.264;8.596;2022-08-19T09:55:55;26.30;99.90
15535;DHT22;7869;49.264;8.596;2022-08-19T09:58:20;26.40;99.90
15535;DHT22;7869;49.264;8.596;2022-08-19T10:00:48;26.30;99.90
15535;DHT22;7869;49.264;8.596;2022-08-19T10:03:13;26.10;99.90
15535;DHT22;7869;49.264;8.596;2022-08-19T10:05:39;26.10;99.90
15535;DHT22;7869;49.264;8.596;2022-08-19T10:08:15;26.00;99.90
15535;DHT22;7869;49.264;8.596;2022-08-19T10:10:42;26.30;99.90
15535;DHT22;7869;49.264;8.596;2022-08-19T10:13:11;26.40;99.90
15535;DHT22;7869;49.264;8.596;2022-08-19T10:15:37;26.40;99.90
15535;DHT22;7869;49.264;8.596;2022-08-19T10:18:05;26.70;99.90
15535;DHT22;7869;49.264;8.596;2022-08-19T10:20:31;26.60;99.90
15535;DHT22;7869;49.264;8.596;2022-08-19T10:22:57;26.40;99.90
15535;DHT22;7869;49.264;8.596;2022-08-19T10:25:25;26.20;99.90
15535;DHT22;7869;49.264;8.596;2022-08-19T10:27:52;26.20;99.90
15535;DHT22;7869;49.264;8.596;2022-08-19T10:30:18;26.30;99.90
15535;DHT22;7869;49.264;8.596;2022-08-19T10:32:44;26.50;99.90
15535;DHT22;7869;49.264;8.596;2022-08-19T10:35:11;26.80;99.90
15535;DHT22;7869;49.264;8.596;2022-08-19T10:37:37;27.00;99.90
15535;DHT22;7869;49.264;8.596;2022-08-19T10:40:05;27.00;99.90
15535;DHT22;7869;49.264;8.596;2022-08-19T10:42:32;27.20;99.90
15535;DHT22;7869;49.264;8.596;2022-08-19T10:44:57;27.40;99.90
15535;DHT22;7869;49.264;8.596;2022-08-19T10:47:23;27.30;99.90
15535;DHT22;7869;49.264;8.596;2022-08-19T10:49:49;27.00;99.90
15535;DHT22;7869;49.264;8.596;2022-08-19T10:52:33;26.90;99.90
15535;DHT22;7869;49.264;8.596;2022-08-19T10:55:06;26.70;99.90
15535;DHT22;7869;49.264;8.596;2022-08-19T10:57:50;26.70;99.90
15535;DHT22;7869;49.264;8.596;2022-08-19T11:00:18;26.80;99.90
15535;DHT22;7869;49.264;8.596;2022-08-19T11:02:43;27.00;99.90
15535;DHT22;7869;49.264;8.596;2022-08-19T11:05:09;27.10;99.90
15535;DHT22;7869;49.264;8.596;2022-08-19T11:07:37;27.10;99.90
15535;DHT22;7869;49.264;8.596;2022-08-19T11:10:04;27.00;99.90
15535;DHT22;7869;49.264;8.596;2022-08-19T11:12:30;27.00;99.90
15535;DHT22;7869;49.264;8.596;2022-08-19T11:14:55;27.30;99.90
15535;DHT22;7869;49.264;8.596;2022-08-19T11:17:21;27.30;99.90
15535;DHT22;7869;49.264;8.596;2022-08-19T11:19:49;27.30;99.90
15535;DHT22;7869;49.264;8.596;2022-08-19T11:22:15;27.50;99.90
15535;DHT22;7869;49.264;8.596;2022-08-19T11:24:41;27.60;99.90
15535;DHT22;7869;49.264;8.596;2022-08-19T11:27:09;27.50;99.90
15535;DHT22;7869;49.264;8.596;2022-08-19T11:29:37;27.40;99.90
15535;DHT22;7869;49.264;8.596;2022-08-19T11:32:09;27.30;99.90
15535;DHT22;7869;49.264;8.596;2022-08-19T11:34:36;27.40;99.90
15535;DHT22;7869;49.264;8.596;2022-08-19T11:37:03;27.60;99.90
15535;DHT22;7869;49.264;8.596;2022-08-19T11:39:30;27.60;99.90
15535;DHT22;7869;49.264;8.596;2022-08-19T11:42:00;27.50;99.90
15535;DHT22;7869;49.264;8.596;2022-08-19T11:44:27;27.50;99.90
15535;DHT22;7869;49.264;8.596;2022-08-19T11:46:56;27.40;99.90
15535;DHT22;7869;49.264;8.596;2022-08-19T11:49:22;27.40;99.90
15535;DHT22;7869;49.264;8.596;2022-08-19T11:51:48;27.60;99.90
15535;DHT22;7869;49.264;8.596;2022-08-19T11:54:17;27.80;99.90
15535;DHT22;7869;49.264;8.596;2022-08-19T11:56:43;27.80;99.90
15535;DHT22;7869;49.264;8.596;2022-08-19T11:59:09;28.00;99.90
15535;DHT22;7869;49.264;8.596;2022-08-19T12:01:36;28.00;99.90
15535;DHT22;7869;49.264;8.596;2022-08-19T12:04:02;27.70;99.90
15535;DHT22;7869;49.264;8.596;2022-08-19T12:06:31;27.90;99.90
15535;DHT22;7869;49.264;8.596;2022-08-19T12:09:00;28.00;99.90
15535;DHT22;7869;49.264;8.596;2022-08-19T12:11:26;28.20;99.90
15535;DHT22;7869;49.264;8.596;2022-08-19T12:13:52;28.30;99.90
15535;DHT22;7869;49.264;8.596;2022-08-19T12:16:25;28.00;99.90
15535;DHT22;7869;49.264;8.596;2022-08-19T12:18:52;27.90;99.90
15535;DHT22;7869;49.264;8.596;2022-08-19T12:21:21;28.00;99.90
15535;DHT22;7869;49.264;8.596;2022-08-19T12:23:48;28.00;99.90
15535;DHT22;7869;49.264;8.596;2022-08-19T12:26:14;28.00;99.90
15535;DHT22;7869;49.264;8.596;2022-08-19T12:28:39;28.30;99.90
15535;DHT22;7869;49.264;8.596;2022-08-19T12:31:07;28.30;99.90
15535;DHT22;7869;49.264;8.596;2022-08-19T12:33:33;28.20;99.90
15535;DHT22;7869;49.264;8.596;2022-08-19T12:36:03;28.40;99.90
15535;DHT22;7869;49.264;8.596;2022-08-19T12:38:29;28.40;99.90
15535;DHT22;7869;49.264;8.596;2022-08-19T12:40:55;28.60;99.90
15535;DHT22;7869;49.264;8.596;2022-08-19T12:43:21;28.60;99.90
15535;DHT22;7869;49.264;8.596;2022-08-19T12:45:46;28.70;99.90
15535;DHT22;7869;49.264;8.596;2022-08-19T12:48:13;28.60;99.90
15535;DHT22;7869;49.264;8.596;2022-08-19T12:50:40;28.60;99.90
15535;DHT22;7869;49.264;8.596;2022-08-19T12:53:08;28.80;99.90
15535;DHT22;7869;49.264;8.596;2022-08-19T12:55:33;29.00;99.90
15535;DHT22;7869;49.264;8.596;2022-08-19T12:57:59;29.00;99.90
15535;DHT22;7869;49.264;8.596;2022-08-19T13:00:27;29.00;99.90
15535;DHT22;7869;49.264;8.596;2022-08-19T13:02:53;29.00;99.90
15535;DHT22;7869;49.264;8.596;2022-08-19T13:05:29;29.00;99.90
15535;DHT22;7869;49.264;8.596;2022-08-19T13:07:57;29.00;98.40
15535;DHT22;7869;49.264;8.596;2022-08-19T13:10:28;29.00;97.30
15535;DHT22;7869;49.264;8.596;2022-08-19T13:12:55;29.00;95.50
15535;DHT22;7869;49.264;8.596;2022-08-19T13:15:23;29.00;95.70
15535;DHT22;7869;49.264;8.596;2022-08-19T13:17:52;28.90;93.40
15535;DHT22;7869;49.264;8.596;2022-08-19T13:20:19;28.80;91.10
15535;DHT22;7869;49.264;8.596;2022-08-19T13:22:46;28.90;88.60
15535;DHT22;7869;49.264;8.596;2022-08-19T13:25:12;28.90;91.70
15535;DHT22;7869;49.264;8.596;2022-08-19T13:27:39;29.00;88.80
15535;DHT22;7869;49.264;8.596;2022-08-19T13:30:07;29.00;89.70
15535;DHT22;7869;49.264;8.596;2022-08-19T13:32:52;29.10;82.70
15535;DHT22;7869;49.264;8.596;2022-08-19T13:35:37;29.10;81.40
15535;DHT22;7869;49.264;8.596;2022-08-19T13:38:03;29.00;79.70
15535;DHT22;7869;49.264;8.596;2022-08-19T13:40:31;29.00;81.30
15535;DHT22;7869;49.264;8.596;2022-08-19T13:42:59;29.10;79.10
15535;DHT22;7869;49.264;8.596;2022-08-19T13:45:28;29.10;73.50
15535;DHT22;7869;49.264;8.596;2022-08-19T13:47:55;28.90;69.20
15535;DHT22;7869;49.264;8.596;2022-08-19T13:50:26;28.90;71.40
15535;DHT22;7869;49.264;8.596;2022-08-19T13:52:53;28.90;70.80
15535;DHT22;7869;49.264;8.596;2022-08-19T13:55:19;29.10;66.10
15535;DHT22;7869;49.264;8.596;2022-08-19T13:57:45;29.00;66.70
15535;DHT22;7869;49.264;8.596;2022-08-19T14:00:16;29.10;66.30
15535;DHT22;7869;49.264;8.596;2022-08-19T14:02:47;29.50;61.30
15535;DHT22;7869;49.264;8.596;2022-08-19T14:05:14;29.60;58.80
15535;DHT22;7869;49.264;8.596;2022-08-19T14:07:41;29.50;58.30
15535;DHT22;7869;49.264;8.596;2022-08-19T14:10:10;29.60;56.50
15535;DHT22;7869;49.264;8.596;2022-08-19T14:12:36;29.60;53.70
15535;DHT22;7869;49.264;8.596;2022-08-19T14:15:03;29.40;83.70
15535;DHT22;7869;49.264;8.596;2022-08-19T14:17:29;29.30;54.60
15535;DHT22;7869;49.264;8.596;2022-08-19T14:19:59;29.50;50.90
15535;DHT22;7869;49.264;8.596;2022-08-19T14:22:30;29.70;50.20
15535;DHT22;7869;49.264;8.596;2022-08-19T14:24:57;29.70;76.10
15535;DHT22;7869;49.264;8.596;2022-08-19T14:27:22;29.80;47.60
15535;DHT22;7869;49.264;8.596;2022-08-19T14:29:50;29.90;44.50
15535;DHT22;7869;49.264;8.596;2022-08-19T14:32:15;30.00;45.60
15535;DHT22;7869;49.264;8.596;2022-08-19T14:34:41;29.80;44.80
15535;DHT22;7869;49.264;8.596;2022-08-19T14:37:07;29.90;42.30
15535;DHT22;7869;49.264;8.596;2022-08-19T14:39:34;29.90;43.60
15535;DHT22;7869;49.264;8.596;2022-08-19T14:42:00;30.30;41.90
15535;DHT22;7869;49.264;8.596;2022-08-19T14:44:26;30.30;39.70
15535;DHT22;7869;49.264;8.596;2022-08-19T14:46:52;30.30;40.30
15535;DHT22;7869;49.264;8.596;2022-08-19T14:49:18;30.20;38.70
15535;DHT22;7869;49.264;8.596;2022-08-19T14:51:44;30.30;39.70
15535;DHT22;7869;49.264;8.596;2022-08-19T14:54:12;30.30;36.50
15535;DHT22;7869;49.264;8.596;2022-08-19T14:56:39;30.20;37.60
15535;DHT22;7869;49.264;8.596;2022-08-19T14:59:05;29.80;39.20
15535;DHT22;7869;49.264;8.596;2022-08-19T15:01:31;29.80;37.70
15535;DHT22;7869;49.264;8.596;2022-08-19T15:03:57;29.70;38.00
15535;DHT22;7869;49.264;8.596;2022-08-19T15:06:24;29.70;38.30
15535;DHT22;7869;49.264;8.596;2022-08-19T15:08:50;29.50;36.50
15535;DHT22;7869;49.264;8.596;2022-08-19T15:11:18;29.50;37.90
15535;DHT22;7869;49.264;8.596;2022-08-19T15:13:46;29.50;37.50
15535;DHT22;7869;49.264;8.596;2022-08-19T15:16:12;29.70;36.70
15535;DHT22;7869;49.264;8.596;2022-08-19T15:18:40;29.90;37.40
15535;DHT22;7869;49.264;8.596;2022-08-19T15:21:11;29.90;35.40
15535;DHT22;7869;49.264;8.596;2022-08-19T15:23:44;29.80;33.90
15535;DHT22;7869;49.264;8.596;2022-08-19T15:26:11;29.80;33.50
15535;DHT22;7869;49.264;8.596;2022-08-19T15:28:36;29.90;31.70
15535;DHT22;7869;49.264;8.596;2022-08-19T15:31:03;30.30;32.00
15535;DHT22;7869;49.264;8.596;2022-08-19T15:33:31;30.50;29.80
15535;DHT22;7869;49.264;8.596;2022-08-19T15:35:57;30.60;29.90
15535;DHT22;7869;49.264;8.596;2022-08-19T15:38:23;30.40;29.40
15535;DHT22;7869;49.264;8.596;2022-08-19T15:40:50;30.70;28.60
15535;DHT22;7869;49.264;8.596;2022-08-19T15:43:17;30.70;26.30
15535;DHT22;7869;49.264;8.596;2022-08-19T15:45:44;30.90;25.10
15535;DHT22;7869;49.264;8.596;2022-08-19T15:48:09;31.10;24.80
15535;DHT22;7869;49.264;8.596;2022-08-19T15:50:35;31.00;24.40
15535;DHT22;7869;49.264;8.596;2022-08-19T15:53:07;31.00;24.40
15535;DHT22;7869;49.264;8.596;2022-08-19T15:55:36;30.90;22.30
15535;DHT22;7869;49.264;8.596;2022-08-19T15:58:09;30.60;24.30
15535;DHT22;7869;49.264;8.596;2022-08-19T16:00:53;30.50;23.90
15535;DHT22;7869;49.264;8.596;2022-08-19T16:03:37;30.30;25.30
15535;DHT22;7869;49.264;8.596;2022-08-19T16:06:21;30.00;26.70
15535;DHT22;7869;49.264;8.596;2022-08-19T16:08:53;30.00;27.00